x

San Clemente Basin - 27nm Se Of San Clemente Is, Ca (46086) Wave Buoy

4:50am - Sat 28th Feb 2015 All times are PST. -8 hours from GMT.

  • Sig Wave height 6.2ft
  • Swell Direction
  • Peak Period 8s
  • Average Period 6s
  • Wind
    18mph, 20mph gusts
  • Sea Temp 62°f
  • Air Temp 59°f
  • Sea Pressure 1009.8mb
  • San Clemente Basin - 27nm Se Of San Clemente Is, Ca
  • San Clemente Basin - 27nm Se Of San Clemente Is, Ca

More Historic Weather Station data

Upgrade to MSW Pro to gain access to the past 30 days of data for over 8000 Wavebouys and Weather Stations around the globe.

Join Pro

Comparision Forecast

View Surf forecast
   
Sat 02/28 4:50am 6ft 8s 6s 18 20 mph 1009.8mb 62f 59f
3:50am 6ft 8s 6s 18 20 mph 1009.4mb 62f 60f
2:50am 7ft 8s 6s 20 25 mph 1009.3mb 62f 60f
1:50am 7ft 8s 6s 20 22 mph 1009.8mb 62f 60f
12:50am 7ft 9s 6s 20 25 mph 1009.6mb 62f 60f
Fri 02/27 11:50pm 7ft 8s 6s 22 27 mph 1009.6mb 62f 60f
10:50pm 7ft 8s 6s 22 27 mph 1009.9mb 62f 60f
9:50pm 7ft 8s 6s 20 25 mph 1010mb 62f 60f
8:50pm 7.5ft 8s 6s 22 27 mph 1009.5mb 62f 61f
7:50pm 7.5ft 8s 6s 20 22 mph 1009.3mb 62f 60f
6:50pm 7.5ft 8s 6s 22 29 mph 1009mb 62f 61f
5:50pm 7ft 9s 6s 20 25 mph 1008.8mb 62f 60f
4:50pm 8ft 8s 6s 22 25 mph 1008.5mb 62f 60f
3:50pm 7ft 8s 6s 20 25 mph 1008.8mb 63f 60f
2:50pm 7ft 10s 6s 22 27 mph 1008.8mb 62f 60f
1:50pm 6ft 8s 6s 20 25 mph 1009.1mb 63f 60f
12:50pm 6ft 8s 7s 16 20 mph 1009.8mb 63f 61f
11:50am 6ft 8s 7s 13 16 mph 1010.8mb 63f 60f
10:50am 6ft 10s 7s 13 18 mph 1011.4mb 62f 61f
9:50am 5.5ft 11s 7s 11 13 mph 1011.2mb 62f 60f
8:50am 5ft 7s 7s 4 7 mph 1011mb 62f 60f
7:50am 5ft 9s 7s 2 4 mph 1010.1mb 62f 60f
6:50am 5.5ft 10s 7s 2 4 mph 1010.3mb 62f 60f
5:50am 5.5ft 8s 7s 4 9 mph 1009.9mb 62f 60f
4:50am 5ft 9s 7s 4 7 mph 1009.6mb 62f 60f
3:50am 5ft 8s 7s 7 9 mph 1009.5mb 62f 60f
2:50am 5ft 8s 7s 4 9 mph 1009.2mb 62f 60f
1:50am 5ft 8s 7s 7 9 mph 1009.9mb 62f 60f
12:50am 5ft 8s 7s 4 9 mph 1010.1mb 62f 60f
Thu 02/26 11:50pm 5ft 10s 7s 4
mph
1010.5mb 63f 60f
10:50pm 4.5ft 7s 6s 2
mph
1011.1mb 62f 60f
9:50pm 4.5ft 8s 6s 4
mph
1011.3mb 63f 60f
8:50pm 5ft 9s 7s 9 11 mph 1011.2mb 63f 60f
7:50pm 4.5ft 8s 6s 11 13 mph 1011.1mb 63f 61f
6:50pm 5ft 9s 7s 9 11 mph 1010.5mb 63f 60f
5:50pm 5ft 10s 7s 9 11 mph 1010.2mb 63f 60f
4:50pm 5.5ft 8s 7s 9 11 mph 1010.5mb 63f 61f
3:50pm 6ft 8s 7s 9 13 mph 1011mb 63f 61f
2:50pm 6ft 8s 7s 7 9 mph 1011.1mb 63f 60f
1:50pm 6ft 8s 7s 7 9 mph 1011.4mb 64f 61f
12:50pm 4.5ft 8s 7s 2 7 mph 1012.7mb 64f 61f
11:50am 5.5ft 8s 7s 4 7 mph 1013.9mb 63f 60f
10:50am 5ft 8s 7s 4
mph
1014.1mb 63f 60f
9:50am 5ft 8s 6s 4
mph
1014.2mb 62f 60f
8:50am 5.5ft 8s 7s 7
mph
1014.4mb 62f 60f
7:50am 5ft 8s 7s 11 13 mph 1014.8mb 62f 60f
6:50am 5ft 12s 7s 11 13 mph 1014.2mb 62f 59f
5:50am 5ft 11s 7s 7 9 mph 1013.6mb 62f 59f
4:50am 5ft 12s 7s 2 4 mph 1013.9mb 62f 59f
3:50am 5ft 12s 7s 2 4 mph 1014.5mb 62f 59f
2:50am 4.5ft 12s 7s  -  2 mph 1014.7mb 62f 60f
1:50am 4ft 12s 7s 2 4 mph 1015.4mb 62f 59f
12:50am 4ft 12s 7s 4 7 mph 1016.2mb 62f 60f
Wed 02/25 11:50pm 4ft 12s 7s 7 9 mph 1016.5mb 62f 60f
10:50pm 4ft 12s 7s 9 11 mph 1016.9mb 63f 60f
9:50pm 4ft 12s 7s 9
mph
1017.3mb 63f 60f
8:50pm 4.5ft 13s 7s 4 7 mph 1016.8mb 63f 60f
7:50pm 4.5ft 13s 7s 7 9 mph 1017.1mb 63f 61f
6:50pm 4.5ft 12s 7s 9 13 mph 1016.5mb 63f 61f
5:50pm 4.5ft 12s 7s 7 9 mph 1016.6mb 63f 60f
4:50pm 5ft 13s 7s 7 9 mph 1017mb 64f 61f
3:50pm 4.5ft 13s 7s 2 4 mph 1017mb 64f 61f
2:50pm 4.5ft 13s 7s 7 9 mph 1017.5mb 64f 61f
1:50pm 4.5ft 12s 7s 9
mph
1017.8mb 64f 61f
12:50pm 4.5ft 13s 7s 4 7 mph 1019.3mb 64f 61f
11:50am 4.5ft 13s 7s 4
mph
1020.2mb 63f 61f
10:50am 4ft 13s 7s 7 9 mph 1021.2mb 63f 60f
9:50am 4.5ft 13s 7s 9 11 mph 1021.5mb 62f 60f
8:50am 4.5ft 13s 7s 9 11 mph 1021.7mb 62f 60f
7:50am 4.5ft 12s 7s 7 9 mph 1021.6mb 62f 60f
6:50am 4.5ft 14s 7s 7 9 mph 1021.4mb 62f 60f
5:50am 4.5ft 14s 7s 2 4 mph 1021.4mb 62f 60f
4:50am 4.5ft 12s 6s 2 4 mph 1022mb 62f 60f
3:50am 4.5ft 12s 6s 7 9 mph 1022.1mb 62f 60f
2:50am 5ft 13s 6s 7 9 mph 1022.4mb 62f 60f
1:50am 5ft 14s 6s 7 9 mph 1023.1mb 62f 60f
12:50am 5ft 14s 6s 9 11 mph 1023.5mb 62f 60f
Tue 02/24 11:50pm 5ft 13s 6s 16 18 mph 1023.3mb 62f 61f
10:50pm 5ft 14s 6s 16 18 mph 1023mb 62f 61f
9:50pm 5ft 14s 6s 18 22 mph 1023mb 62f 62f
8:50pm 5ft 14s 6s 16 18 mph 1022.7mb 62f 62f
7:50pm 5ft 13s 5s 18 20 mph 1022.4mb 62f 62f
6:50pm 5.5ft 14s 6s 18 20 mph 1022.1mb 62f 62f
5:50pm 5.5ft 14s 6s 16 18 mph 1021.5mb 62f 62f
4:50pm 5ft 14s 6s 18 22 mph 1020.8mb 63f 62f
3:50pm 5ft 14s 6s 13 16 mph 1021mb 63f 62f
2:50pm 4.5ft 14s 6s 18 20 mph 1021.3mb 62f 62f